sensor_id;sensor_type;location;lat;lon;timestamp;temperature;humidity
55369;DHT22;41247;49.736;8.752;2022-11-15T00:00:50;11.80;99.90
55369;DHT22;41247;49.736;8.752;2022-11-15T00:04:31;11.80;99.90
55369;DHT22;41247;49.736;8.752;2022-11-15T00:08:19;11.90;99.90
55369;DHT22;41247;49.736;8.752;2022-11-15T00:11:59;11.90;99.90
55369;DHT22;41247;49.736;8.752;2022-11-15T00:15:41;11.90;99.90
55369;DHT22;41247;49.736;8.752;2022-11-15T00:19:21;12.00;99.90
55369;DHT22;41247;49.736;8.752;2022-11-15T00:23:10;12.00;99.90
55369;DHT22;41247;49.736;8.752;2022-11-15T00:26:51;12.10;99.90
55369;DHT22;41247;49.736;8.752;2022-11-15T00:30:31;12.10;99.90
55369;DHT22;41247;49.736;8.752;2022-11-15T00:34:12;12.10;99.90
55369;DHT22;41247;49.736;8.752;2022-11-15T00:37:52;12.00;99.90
55369;DHT22;41247;49.736;8.752;2022-11-15T00:41:33;12.00;99.90
55369;DHT22;41247;49.736;8.752;2022-11-15T00:45:14;11.90;99.90
55369;DHT22;41247;49.736;8.752;2022-11-15T00:48:54;11.80;99.90
55369;DHT22;41247;49.736;8.752;2022-11-15T00:52:35;11.80;99.90
55369;DHT22;41247;49.736;8.752;2022-11-15T00:56:15;11.80;99.90
55369;DHT22;41247;49.736;8.752;2022-11-15T00:59:56;11.90;99.90
55369;DHT22;41247;49.736;8.752;2022-11-15T01:03:38;11.80;99.90
55369;DHT22;41247;49.736;8.752;2022-11-15T01:07:19;11.80;99.90
55369;DHT22;41247;49.736;8.752;2022-11-15T01:11:01;11.80;99.90
55369;DHT22;41247;49.736;8.752;2022-11-15T01:14:46;11.70;99.90
55369;DHT22;41247;49.736;8.752;2022-11-15T01:18:26;11.70;99.90
55369;DHT22;41247;49.736;8.752;2022-11-15T01:22:12;11.60;99.90
55369;DHT22;41247;49.736;8.752;2022-11-15T01:25:58;11.50;99.90
55369;DHT22;41247;49.736;8.752;2022-11-15T01:29:39;11.50;99.90
55369;DHT22;41247;49.736;8.752;2022-11-15T01:33:20;11.30;99.90
55369;DHT22;41247;49.736;8.752;2022-11-15T01:37:01;11.20;99.90
55369;DHT22;41247;49.736;8.752;2022-11-15T01:40:41;11.10;99.90
55369;DHT22;41247;49.736;8.752;2022-11-15T01:48:14;10.90;99.90
55369;DHT22;41247;49.736;8.752;2022-11-15T01:51:55;10.90;99.90
55369;DHT22;41247;49.736;8.752;2022-11-15T01:55:37;10.90;99.90
55369;DHT22;41247;49.736;8.752;2022-11-15T01:59:18;11.00;99.90
55369;DHT22;41247;49.736;8.752;2022-11-15T02:02:59;11.20;99.90
55369;DHT22;41247;49.736;8.752;2022-11-15T02:06:41;11.20;99.90
55369;DHT22;41247;49.736;8.752;2022-11-15T02:10:24;11.20;99.90
55369;DHT22;41247;49.736;8.752;2022-11-15T02:14:05;11.30;99.90
55369;DHT22;41247;49.736;8.752;2022-11-15T02:18:10;11.30;99.90
55369;DHT22;41247;49.736;8.752;2022-11-15T02:22:21;11.30;99.90
55369;DHT22;41247;49.736;8.752;2022-11-15T02:30:45;11.20;99.90
55369;DHT22;41247;49.736;8.752;2022-11-15T02:38:54;10.90;99.90
55369;DHT22;41247;49.736;8.752;2022-11-15T02:42:45;10.80;99.90
55369;DHT22;41247;49.736;8.752;2022-11-15T02:46:42;10.70;99.90
55369;DHT22;41247;49.736;8.752;2022-11-15T02:50:28;10.70;99.90
55369;DHT22;41247;49.736;8.752;2022-11-15T02:54:36;10.60;99.90
55369;DHT22;41247;49.736;8.752;2022-11-15T02:58:39;10.70;99.90
55369;DHT22;41247;49.736;8.752;2022-11-15T03:11:20;10.60;99.90
55369;DHT22;41247;49.736;8.752;2022-11-15T03:15:07;10.60;99.90
55369;DHT22;41247;49.736;8.752;2022-11-15T03:23:10;10.60;99.90
55369;DHT22;41247;49.736;8.752;2022-11-15T03:26:53;10.60;99.90
55369;DHT22;41247;49.736;8.752;2022-11-15T03:30:38;10.70;99.90
55369;DHT22;41247;49.736;8.752;2022-11-15T03:38:48;10.70;99.90
55369;DHT22;41247;49.736;8.752;2022-11-15T03:46:48;10.70;99.90
55369;DHT22;41247;49.736;8.752;2022-11-15T03:50:34;10.90;99.90
55369;DHT22;41247;49.736;8.752;2022-11-15T03:54:17;10.90;99.90
55369;DHT22;41247;49.736;8.752;2022-11-15T03:57:59;10.90;99.90
55369;DHT22;41247;49.736;8.752;2022-11-15T04:01:40;10.90;99.90
55369;DHT22;41247;49.736;8.752;2022-11-15T04:05:21;11.00;99.90
55369;DHT22;41247;49.736;8.752;2022-11-15T04:09:02;11.00;99.90
55369;DHT22;41247;49.736;8.752;2022-11-15T04:12:45;11.10;99.90
55369;DHT22;41247;49.736;8.752;2022-11-15T04:16:26;11.10;99.90
55369;DHT22;41247;49.736;8.752;2022-11-15T04:20:13;11.10;99.90
55369;DHT22;41247;49.736;8.752;2022-11-15T04:23:54;11.10;99.90
55369;DHT22;41247;49.736;8.752;2022-11-15T04:27:47;11.20;99.90
55369;DHT22;41247;49.736;8.752;2022-11-15T04:31:27;11.20;99.90
55369;DHT22;41247;49.736;8.752;2022-11-15T04:35:10;11.20;99.90
55369;DHT22;41247;49.736;8.752;2022-11-15T04:43:39;11.20;99.90
55369;DHT22;41247;49.736;8.752;2022-11-15T04:47:21;11.30;99.90
55369;DHT22;41247;49.736;8.752;2022-11-15T04:51:12;11.20;99.90
55369;DHT22;41247;49.736;8.752;2022-11-15T04:55:20;11.20;99.90
55369;DHT22;41247;49.736;8.752;2022-11-15T05:04:23;11.20;99.90
55369;DHT22;41247;49.736;8.752;2022-11-15T05:12:23;11.20;99.90
55369;DHT22;41247;49.736;8.752;2022-11-15T05:16:03;11.20;99.90
55369;DHT22;41247;49.736;8.752;2022-11-15T05:19:44;11.20;99.90
55369;DHT22;41247;49.736;8.752;2022-11-15T05:23:24;11.20;99.90
55369;DHT22;41247;49.736;8.752;2022-11-15T05:27:05;11.10;99.90
55369;DHT22;41247;49.736;8.752;2022-11-15T05:30:46;11.10;99.90
55369;DHT22;41247;49.736;8.752;2022-11-15T05:34:26;11.10;99.90
55369;DHT22;41247;49.736;8.752;2022-11-15T05:38:09;11.10;99.90
55369;DHT22;41247;49.736;8.752;2022-11-15T05:42:04;11.00;99.90
55369;DHT22;41247;49.736;8.752;2022-11-15T05:45:53;11.00;99.90
55369;DHT22;41247;49.736;8.752;2022-11-15T05:49:36;11.00;99.90
55369;DHT22;41247;49.736;8.752;2022-11-15T05:53:19;10.90;99.90
55369;DHT22;41247;49.736;8.752;2022-11-15T05:57:01;10.90;99.90
55369;DHT22;41247;49.736;8.752;2022-11-15T06:00:45;10.80;99.90
55369;DHT22;41247;49.736;8.752;2022-11-15T06:04:26;10.80;99.90
55369;DHT22;41247;49.736;8.752;2022-11-15T06:08:15;10.70;99.90
55369;DHT22;41247;49.736;8.752;2022-11-15T06:11:55;10.70;99.90
55369;DHT22;41247;49.736;8.752;2022-11-15T06:15:36;10.60;99.90
55369;DHT22;41247;49.736;8.752;2022-11-15T06:19:16;10.60;99.90
55369;DHT22;41247;49.736;8.752;2022-11-15T06:23:08;10.70;99.90
55369;DHT22;41247;49.736;8.752;2022-11-15T06:26:49;10.70;99.90
55369;DHT22;41247;49.736;8.752;2022-11-15T06:30:31;10.70;99.90
55369;DHT22;41247;49.736;8.752;2022-11-15T06:34:12;10.80;99.90
55369;DHT22;41247;49.736;8.752;2022-11-15T06:37:52;10.80;99.90
55369;DHT22;41247;49.736;8.752;2022-11-15T06:41:34;10.80;99.90
55369;DHT22;41247;49.736;8.752;2022-11-15T06:45:17;10.90;99.90
55369;DHT22;41247;49.736;8.752;2022-11-15T06:48:57;10.80;99.90
55369;DHT22;41247;49.736;8.752;2022-11-15T06:52:38;10.70;99.90
55369;DHT22;41247;49.736;8.752;2022-11-15T06:56:25;10.70;99.90
55369;DHT22;41247;49.736;8.752;2022-11-15T07:00:06;10.70;99.90
55369;DHT22;41247;49.736;8.752;2022-11-15T07:03:47;10.70;99.90
55369;DHT22;41247;49.736;8.752;2022-11-15T07:07:27;10.80;99.90
55369;DHT22;41247;49.736;8.752;2022-11-15T07:11:08;10.80;99.90
55369;DHT22;41247;49.736;8.752;2022-11-15T07:14:49;10.80;99.90
55369;DHT22;41247;49.736;8.752;2022-11-15T07:18:29;10.80;99.90
55369;DHT22;41247;49.736;8.752;2022-11-15T07:22:10;10.90;99.90
55369;DHT22;41247;49.736;8.752;2022-11-15T07:25:51;10.90;99.90
55369;DHT22;41247;49.736;8.752;2022-11-15T07:29:31;11.00;99.90
55369;DHT22;41247;49.736;8.752;2022-11-15T07:33:12;11.10;99.90
55369;DHT22;41247;49.736;8.752;2022-11-15T07:36:53;11.10;99.90
55369;DHT22;41247;49.736;8.752;2022-11-15T07:40:33;11.20;99.90
55369;DHT22;41247;49.736;8.752;2022-11-15T07:44:14;11.20;99.90
55369;DHT22;41247;49.736;8.752;2022-11-15T07:47:55;11.30;99.90
55369;DHT22;41247;49.736;8.752;2022-11-15T07:51:36;11.30;99.90
55369;DHT22;41247;49.736;8.752;2022-11-15T07:55:16;11.40;99.90
55369;DHT22;41247;49.736;8.752;2022-11-15T07:58:57;11.40;99.90
55369;DHT22;41247;49.736;8.752;2022-11-15T08:02:38;11.50;99.90
55369;DHT22;41247;49.736;8.752;2022-11-15T08:06:18;11.60;99.90
55369;DHT22;41247;49.736;8.752;2022-11-15T08:09:59;11.80;99.90
55369;DHT22;41247;49.736;8.752;2022-11-15T08:13:39;11.90;99.90
55369;DHT22;41247;49.736;8.752;2022-11-15T08:17:20;12.00;99.90
55369;DHT22;41247;49.736;8.752;2022-11-15T08:21:01;12.10;99.90
55369;DHT22;41247;49.736;8.752;2022-11-15T08:24:42;12.10;99.90
55369;DHT22;41247;49.736;8.752;2022-11-15T08:28:22;12.10;99.90
55369;DHT22;41247;49.736;8.752;2022-11-15T08:32:03;12.30;99.90
55369;DHT22;41247;49.736;8.752;2022-11-15T08:35:44;12.30;99.90
55369;DHT22;41247;49.736;8.752;2022-11-15T08:39:25;12.40;99.90
55369;DHT22;41247;49.736;8.752;2022-11-15T08:43:05;12.40;99.90
55369;DHT22;41247;49.736;8.752;2022-11-15T08:46:46;12.40;99.90
55369;DHT22;41247;49.736;8.752;2022-11-15T08:50:27;12.50;99.90
55369;DHT22;41247;49.736;8.752;2022-11-15T08:54:07;12.50;99.90
55369;DHT22;41247;49.736;8.752;2022-11-15T08:57:51;12.60;99.90
55369;DHT22;41247;49.736;8.752;2022-11-15T09:01:32;12.70;99.90
55369;DHT22;41247;49.736;8.752;2022-11-15T09:05:12;12.70;99.90
55369;DHT22;41247;49.736;8.752;2022-11-15T09:08:53;12.80;99.90
55369;DHT22;41247;49.736;8.752;2022-11-15T09:12:34;12.70;99.90
55369;DHT22;41247;49.736;8.752;2022-11-15T09:16:14;12.60;99.90
55369;DHT22;41247;49.736;8.752;2022-11-15T09:19:55;12.60;99.90
55369;DHT22;41247;49.736;8.752;2022-11-15T09:23:35;12.60;99.90
55369;DHT22;41247;49.736;8.752;2022-11-15T09:27:16;12.60;99.90
55369;DHT22;41247;49.736;8.752;2022-11-15T09:30:58;12.60;99.90
55369;DHT22;41247;49.736;8.752;2022-11-15T09:34:42;12.70;99.90
55369;DHT22;41247;49.736;8.752;2022-11-15T09:38:23;12.70;99.90
55369;DHT22;41247;49.736;8.752;2022-11-15T09:42:24;12.80;99.90
55369;DHT22;41247;49.736;8.752;2022-11-15T09:50:41;12.90;99.90
55369;DHT22;41247;49.736;8.752;2022-11-15T09:54:35;12.90;99.90
55369;DHT22;41247;49.736;8.752;2022-11-15T10:07:30;12.90;99.90
55369;DHT22;41247;49.736;8.752;2022-11-15T10:11:23;12.90;99.90
55369;DHT22;41247;49.736;8.752;2022-11-15T10:15:15;13.10;99.90
55369;DHT22;41247;49.736;8.752;2022-11-15T10:23:14;13.10;99.90
55369;DHT22;41247;49.736;8.752;2022-11-15T10:26:59;13.10;99.90
55369;DHT22;41247;49.736;8.752;2022-11-15T10:30:44;13.00;99.90
55369;DHT22;41247;49.736;8.752;2022-11-15T10:34:26;13.10;99.90
55369;DHT22;41247;49.736;8.752;2022-11-15T10:38:08;13.00;99.90
55369;DHT22;41247;49.736;8.752;2022-11-15T10:41:50;13.00;99.90
55369;DHT22;41247;49.736;8.752;2022-11-15T10:45:32;13.00;99.90
55369;DHT22;41247;49.736;8.752;2022-11-15T10:49:18;13.00;99.90
55369;DHT22;41247;49.736;8.752;2022-11-15T10:53:03;13.00;99.90
55369;DHT22;41247;49.736;8.752;2022-11-15T10:56:50;13.00;99.90
55369;DHT22;41247;49.736;8.752;2022-11-15T11:00:38;13.00;99.90
55369;DHT22;41247;49.736;8.752;2022-11-15T11:04:18;13.00;99.90
55369;DHT22;41247;49.736;8.752;2022-11-15T11:08:02;12.90;99.90
55369;DHT22;41247;49.736;8.752;2022-11-15T11:11:51;13.00;99.90
55369;DHT22;41247;49.736;8.752;2022-11-15T11:15:32;13.10;99.90
55369;DHT22;41247;49.736;8.752;2022-11-15T11:19:39;13.20;99.90
55369;DHT22;41247;49.736;8.752;2022-11-15T11:36:27;13.20;99.90
55369;DHT22;41247;49.736;8.752;2022-11-15T11:40:47;13.20;99.90
55369;DHT22;41247;49.736;8.752;2022-11-15T11:53:17;13.50;99.90
55369;DHT22;41247;49.736;8.752;2022-11-15T11:57:15;13.50;99.90
55369;DHT22;41247;49.736;8.752;2022-11-15T12:01:20;13.50;99.90
55369;DHT22;41247;49.736;8.752;2022-11-15T12:05:11;13.50;99.90
55369;DHT22;41247;49.736;8.752;2022-11-15T12:09:12;13.50;99.90
55369;DHT22;41247;49.736;8.752;2022-11-15T12:13:10;13.40;99.90
55369;DHT22;41247;49.736;8.752;2022-11-15T12:16:52;13.50;99.90
55369;DHT22;41247;49.736;8.752;2022-11-15T12:20:39;13.50;99.90
55369;DHT22;41247;49.736;8.752;2022-11-15T12:24:31;13.40;99.90
55369;DHT22;41247;49.736;8.752;2022-11-15T12:32:35;13.40;99.90
55369;DHT22;41247;49.736;8.752;2022-11-15T12:40:25;13.80;99.90
55369;DHT22;41247;49.736;8.752;2022-11-15T12:55:37;13.50;99.90
55369;DHT22;41247;49.736;8.752;2022-11-15T12:59:50;13.50;99.90
55369;DHT22;41247;49.736;8.752;2022-11-15T13:03:32;13.40;99.90
55369;DHT22;41247;49.736;8.752;2022-11-15T13:11:42;13.40;99.90
55369;DHT22;41247;49.736;8.752;2022-11-15T13:15:58;13.40;99.90
55369;DHT22;41247;49.736;8.752;2022-11-15T13:19:42;13.40;99.90
55369;DHT22;41247;49.736;8.752;2022-11-15T13:23:23;13.40;99.90
55369;DHT22;41247;49.736;8.752;2022-11-15T13:31:50;13.40;99.90
55369;DHT22;41247;49.736;8.752;2022-11-15T13:35:41;13.30;99.90
55369;DHT22;41247;49.736;8.752;2022-11-15T13:39:37;13.20;99.90
55369;DHT22;41247;49.736;8.752;2022-11-15T13:47:14;13.20;99.90
55369;DHT22;41247;49.736;8.752;2022-11-15T13:50:57;13.30;99.90
55369;DHT22;41247;49.736;8.752;2022-11-15T13:58:21;13.20;99.90
55369;DHT22;41247;49.736;8.752;2022-11-15T14:02:20;13.30;99.90
55369;DHT22;41247;49.736;8.752;2022-11-15T14:06:15;13.30;99.90
55369;DHT22;41247;49.736;8.752;2022-11-15T14:09:56;13.40;99.90
55369;DHT22;41247;49.736;8.752;2022-11-15T14:13:37;13.40;99.90
55369;DHT22;41247;49.736;8.752;2022-11-15T14:21:11;13.60;99.90
55369;DHT22;41247;49.736;8.752;2022-11-15T14:25:15;13.60;99.90
55369;DHT22;41247;49.736;8.752;2022-11-15T14:29:27;13.60;99.90
55369;DHT22;41247;49.736;8.752;2022-11-15T14:33:25;13.60;99.90
55369;DHT22;41247;49.736;8.752;2022-11-15T14:37:23;13.50;99.90
55369;DHT22;41247;49.736;8.752;2022-11-15T14:41:23;13.50;99.90
55369;DHT22;41247;49.736;8.752;2022-11-15T14:45:15;13.30;99.90
55369;DHT22;41247;49.736;8.752;2022-11-15T14:48:58;13.20;99.90
55369;DHT22;41247;49.736;8.752;2022-11-15T14:52:39;13.10;99.90
55369;DHT22;41247;49.736;8.752;2022-11-15T14:56:19;13.00;99.90
55369;DHT22;41247;49.736;8.752;2022-11-15T15:00:00;12.90;99.90
55369;DHT22;41247;49.736;8.752;2022-11-15T15:03:41;12.90;99.90
55369;DHT22;41247;49.736;8.752;2022-11-15T15:07:22;12.80;99.90
55369;DHT22;41247;49.736;8.752;2022-11-15T15:11:10;12.80;99.90
55369;DHT22;41247;49.736;8.752;2022-11-15T15:14:54;12.70;99.90
55369;DHT22;41247;49.736;8.752;2022-11-15T15:18:34;12.60;99.90
55369;DHT22;41247;49.736;8.752;2022-11-15T15:22:17;12.50;99.90
55369;DHT22;41247;49.736;8.752;2022-11-15T15:25:59;12.40;99.90
55369;DHT22;41247;49.736;8.752;2022-11-15T15:29:40;12.40;99.90
55369;DHT22;41247;49.736;8.752;2022-11-15T15:33:20;12.30;99.90
55369;DHT22;41247;49.736;8.752;2022-11-15T15:41:00;12.30;99.90
55369;DHT22;41247;49.736;8.752;2022-11-15T15:44:41;12.20;99.90
55369;DHT22;41247;49.736;8.752;2022-11-15T15:48:22;12.20;99.90
55369;DHT22;41247;49.736;8.752;2022-11-15T15:52:02;12.20;99.90
55369;DHT22;41247;49.736;8.752;2022-11-15T15:55:43;12.10;99.90
55369;DHT22;41247;49.736;8.752;2022-11-15T15:59:23;12.10;99.90
55369;DHT22;41247;49.736;8.752;2022-11-15T16:03:04;12.00;99.90
55369;DHT22;41247;49.736;8.752;2022-11-15T16:06:45;12.00;99.90
55369;DHT22;41247;49.736;8.752;2022-11-15T16:10:29;12.00;99.90
55369;DHT22;41247;49.736;8.752;2022-11-15T16:14:14;12.10;99.90
55369;DHT22;41247;49.736;8.752;2022-11-15T16:17:56;12.00;99.90
55369;DHT22;41247;49.736;8.752;2022-11-15T16:21:38;12.00;99.90
55369;DHT22;41247;49.736;8.752;2022-11-15T16:25:19;12.00;99.90
55369;DHT22;41247;49.736;8.752;2022-11-15T16:28:59;11.90;99.90
55369;DHT22;41247;49.736;8.752;2022-11-15T16:32:40;11.90;99.90
55369;DHT22;41247;49.736;8.752;2022-11-15T16:36:25;12.00;99.90
55369;DHT22;41247;49.736;8.752;2022-11-15T16:40:30;11.90;99.90
55369;DHT22;41247;49.736;8.752;2022-11-15T16:44:13;11.90;99.90
55369;DHT22;41247;49.736;8.752;2022-11-15T16:47:56;11.90;99.90
55369;DHT22;41247;49.736;8.752;2022-11-15T16:51:37;11.90;99.90
55369;DHT22;41247;49.736;8.752;2022-11-15T16:55:18;12.00;99.90
55369;DHT22;41247;49.736;8.752;2022-11-15T16:59:00;12.00;99.90
55369;DHT22;41247;49.736;8.752;2022-11-15T17:02:51;11.90;99.90
55369;DHT22;41247;49.736;8.752;2022-11-15T17:06:32;11.90;99.90
55369;DHT22;41247;49.736;8.752;2022-11-15T17:10:12;12.00;99.90
55369;DHT22;41247;49.736;8.752;2022-11-15T17:13:57;12.00;99.90
55369;DHT22;41247;49.736;8.752;2022-11-15T17:17:38;12.00;99.90
55369;DHT22;41247;49.736;8.752;2022-11-15T17:21:20;12.00;99.90
55369;DHT22;41247;49.736;8.752;2022-11-15T17:25:04;12.00;99.90
55369;DHT22;41247;49.736;8.752;2022-11-15T17:28:45;12.00;99.90
55369;DHT22;41247;49.736;8.752;2022-11-15T17:32:25;12.00;99.90
55369;DHT22;41247;49.736;8.752;2022-11-15T17:36:09;11.90;99.90
55369;DHT22;41247;49.736;8.752;2022-11-15T17:39:51;12.00;99.90
55369;DHT22;41247;49.736;8.752;2022-11-15T17:43:33;12.00;99.90
55369;DHT22;41247;49.736;8.752;2022-11-15T17:47:13;12.00;99.90
55369;DHT22;41247;49.736;8.752;2022-11-15T17:50:56;12.10;99.90
55369;DHT22;41247;49.736;8.752;2022-11-15T17:54:41;12.10;99.90
55369;DHT22;41247;49.736;8.752;2022-11-15T17:58:22;12.10;99.90
55369;DHT22;41247;49.736;8.752;2022-11-15T18:02:03;12.20;99.90
55369;DHT22;41247;49.736;8.752;2022-11-15T18:05:43;12.10;99.90
55369;DHT22;41247;49.736;8.752;2022-11-15T18:09:24;12.10;99.90
55369;DHT22;41247;49.736;8.752;2022-11-15T18:13:04;12.10;99.90
55369;DHT22;41247;49.736;8.752;2022-11-15T18:16:45;12.10;99.90
55369;DHT22;41247;49.736;8.752;2022-11-15T18:20:26;12.10;99.90
55369;DHT22;41247;49.736;8.752;2022-11-15T18:24:06;12.10;99.90
55369;DHT22;41247;49.736;8.752;2022-11-15T18:27:48;12.00;99.90
55369;DHT22;41247;49.736;8.752;2022-11-15T18:31:30;12.00;99.90
55369;DHT22;41247;49.736;8.752;2022-11-15T18:35:10;12.00;99.90
55369;DHT22;41247;49.736;8.752;2022-11-15T18:38:59;12.10;99.90
55369;DHT22;41247;49.736;8.752;2022-11-15T18:42:40;12.20;99.90
55369;DHT22;41247;49.736;8.752;2022-11-15T18:46:23;12.20;99.90
55369;DHT22;41247;49.736;8.752;2022-11-15T18:50:06;12.10;99.90
55369;DHT22;41247;49.736;8.752;2022-11-15T18:53:47;12.10;99.90
55369;DHT22;41247;49.736;8.752;2022-11-15T18:57:28;12.00;99.90
55369;DHT22;41247;49.736;8.752;2022-11-15T19:04:54;12.10;99.90
55369;DHT22;41247;49.736;8.752;2022-11-15T19:08:36;12.20;99.90
55369;DHT22;41247;49.736;8.752;2022-11-15T19:12:17;12.20;99.90
55369;DHT22;41247;49.736;8.752;2022-11-15T19:16:01;12.20;99.90
55369;DHT22;41247;49.736;8.752;2022-11-15T19:19:44;12.30;99.90
55369;DHT22;41247;49.736;8.752;2022-11-15T19:23:24;12.30;99.90
55369;DHT22;41247;49.736;8.752;2022-11-15T19:27:05;12.20;99.90
55369;DHT22;41247;49.736;8.752;2022-11-15T19:30:46;12.20;99.90
55369;DHT22;41247;49.736;8.752;2022-11-15T19:34:26;12.30;99.90
55369;DHT22;41247;49.736;8.752;2022-11-15T19:38:07;12.30;99.90
55369;DHT22;41247;49.736;8.752;2022-11-15T19:41:47;12.30;99.90
55369;DHT22;41247;49.736;8.752;2022-11-15T19:45:28;12.30;99.90
55369;DHT22;41247;49.736;8.752;2022-11-15T19:49:09;12.40;99.90
55369;DHT22;41247;49.736;8.752;2022-11-15T19:52:50;12.40;99.90
55369;DHT22;41247;49.736;8.752;2022-11-15T19:56:32;12.40;99.90
55369;DHT22;41247;49.736;8.752;2022-11-15T20:00:17;12.30;99.90
55369;DHT22;41247;49.736;8.752;2022-11-15T20:04:37;12.30;99.90
55369;DHT22;41247;49.736;8.752;2022-11-15T20:08:17;12.30;99.90
55369;DHT22;41247;49.736;8.752;2022-11-15T20:11:58;12.30;99.90
55369;DHT22;41247;49.736;8.752;2022-11-15T20:15:38;12.30;99.90
55369;DHT22;41247;49.736;8.752;2022-11-15T20:19:19;12.40;99.90
55369;DHT22;41247;49.736;8.752;2022-11-15T20:23:00;12.40;99.90
55369;DHT22;41247;49.736;8.752;2022-11-15T20:26:40;12.40;99.90
55369;DHT22;41247;49.736;8.752;2022-11-15T20:30:21;12.40;99.90
55369;DHT22;41247;49.736;8.752;2022-11-15T20:34:01;12.40;99.90
55369;DHT22;41247;49.736;8.752;2022-11-15T20:37:42;12.40;99.90
55369;DHT22;41247;49.736;8.752;2022-11-15T20:41:22;12.40;99.90
55369;DHT22;41247;49.736;8.752;2022-11-15T20:45:03;12.30;99.90
55369;DHT22;41247;49.736;8.752;2022-11-15T20:48:44;12.30;99.90
55369;DHT22;41247;49.736;8.752;2022-11-15T20:52:25;12.30;99.90
55369;DHT22;41247;49.736;8.752;2022-11-15T20:56:09;12.30;99.90
55369;DHT22;41247;49.736;8.752;2022-11-15T20:59:51;12.30;99.90
55369;DHT22;41247;49.736;8.752;2022-11-15T21:03:33;12.20;99.90
55369;DHT22;41247;49.736;8.752;2022-11-15T21:07:14;12.20;99.90
55369;DHT22;41247;49.736;8.752;2022-11-15T21:10:54;12.20;99.90
55369;DHT22;41247;49.736;8.752;2022-11-15T21:14:35;12.00;99.90
55369;DHT22;41247;49.736;8.752;2022-11-15T21:18:15;11.90;99.90
55369;DHT22;41247;49.736;8.752;2022-11-15T21:21:56;11.90;99.90
55369;DHT22;41247;49.736;8.752;2022-11-15T21:25:37;11.90;99.90
55369;DHT22;41247;49.736;8.752;2022-11-15T21:29:18;11.90;99.90
55369;DHT22;41247;49.736;8.752;2022-11-15T21:32:58;11.90;99.90
55369;DHT22;41247;49.736;8.752;2022-11-15T21:36:39;11.90;99.90
55369;DHT22;41247;49.736;8.752;2022-11-15T21:40:20;11.90;99.90
55369;DHT22;41247;49.736;8.752;2022-11-15T21:44:02;11.90;99.90
55369;DHT22;41247;49.736;8.752;2022-11-15T21:47:43;11.90;99.90
55369;DHT22;41247;49.736;8.752;2022-11-15T21:51:24;11.90;99.90
55369;DHT22;41247;49.736;8.752;2022-11-15T21:55:05;11.90;99.90
55369;DHT22;41247;49.736;8.752;2022-11-15T21:58:45;11.90;99.90
55369;DHT22;41247;49.736;8.752;2022-11-15T22:02:26;11.90;99.90
55369;DHT22;41247;49.736;8.752;2022-11-15T22:06:07;11.90;99.90
55369;DHT22;41247;49.736;8.752;2022-11-15T22:09:48;11.90;99.90
55369;DHT22;41247;49.736;8.752;2022-11-15T22:13:29;11.90;99.90
55369;DHT22;41247;49.736;8.752;2022-11-15T22:17:09;11.90;99.90
55369;DHT22;41247;49.736;8.752;2022-11-15T22:20:58;11.90;99.90
55369;DHT22;41247;49.736;8.752;2022-11-15T22:24:40;11.90;99.90
55369;DHT22;41247;49.736;8.752;2022-11-15T22:28:21;11.90;99.90
55369;DHT22;41247;49.736;8.752;2022-11-15T22:32:02;11.90;99.90
55369;DHT22;41247;49.736;8.752;2022-11-15T22:35:43;11.80;99.90
55369;DHT22;41247;49.736;8.752;2022-11-15T22:39:24;11.80;99.90
55369;DHT22;41247;49.736;8.752;2022-11-15T22:43:05;11.70;99.90
55369;DHT22;41247;49.736;8.752;2022-11-15T22:46:46;11.70;99.90
55369;DHT22;41247;49.736;8.752;2022-11-15T22:50:26;11.60;99.90
55369;DHT22;41247;49.736;8.752;2022-11-15T22:54:08;11.60;99.90
55369;DHT22;41247;49.736;8.752;2022-11-15T22:57:48;11.50;99.90
55369;DHT22;41247;49.736;8.752;2022-11-15T23:01:29;11.50;99.90
55369;DHT22;41247;49.736;8.752;2022-11-15T23:05:10;11.40;99.90
55369;DHT22;41247;49.736;8.752;2022-11-15T23:08:51;11.40;99.90
55369;DHT22;41247;49.736;8.752;2022-11-15T23:12:31;11.40;99.90
55369;DHT22;41247;49.736;8.752;2022-11-15T23:16:12;11.20;99.90
55369;DHT22;41247;49.736;8.752;2022-11-15T23:19:52;11.20;99.90
55369;DHT22;41247;49.736;8.752;2022-11-15T23:23:34;11.10;99.90
55369;DHT22;41247;49.736;8.752;2022-11-15T23:27:15;11.10;99.90
55369;DHT22;41247;49.736;8.752;2022-11-15T23:31:04;11.00;99.90
55369;DHT22;41247;49.736;8.752;2022-11-15T23:34:46;11.10;99.90
55369;DHT22;41247;49.736;8.752;2022-11-15T23:38:27;11.10;99.90
55369;DHT22;41247;49.736;8.752;2022-11-15T23:42:08;11.00;99.90
55369;DHT22;41247;49.736;8.752;2022-11-15T23:45:48;10.90;99.90
55369;DHT22;41247;49.736;8.752;2022-11-15T23:49:29;10.90;99.90
55369;DHT22;41247;49.736;8.752;2022-11-15T23:53:09;10.80;99.90
55369;DHT22;41247;49.736;8.752;2022-11-15T23:56:50;10.80;99.90
